ADDS METAR Data INFO
IDs: Format: Raw Decoded Include TAF

Data at: 1847 UTC 17 Oct 2017

KM91 171835Z AUTO VRB04G10KT 10SM CLR 19/05 A3029 RMK A01
KM91 171815Z AUTO 00000KT 10SM CLR 18/04 A3030 RMK A01
KM91 171755Z AUTO 16004KT 10SM CLR 18/04 A3031 RMK A01
KM91 171735Z AUTO 07005KT 10SM CLR 18/04 A3032 RMK A01
KM91 171715Z AUTO 08004KT 10SM CLR 18/04 A3033 RMK A01
KM91 171655Z AUTO 04004KT 10SM CLR 17/04 A3034 RMK A01
KM91 171635Z AUTO VRB04KT 10SM CLR 17/04 A3035 RMK A01
KM91 171615Z AUTO VRB04G10KT 10SM CLR 16/05 A3035 RMK A01
KM91 171555Z AUTO VRB05G10KT 10SM CLR 16/05 A3036 RMK A01
KM91 171530Z AUTO 13004KT 10SM CLR 16/06 A3037 RMK A01
KM91 171515Z AUTO 10005KT 10SM CLR 15/06 A3037 RMK A01
KM91 171455Z AUTO VRB03KT 10SM CLR 14/07 A3037 RMK A01
KM91 171435Z AUTO VRB05KT 10SM CLR 14/07 A3037 RMK A01
KM91 171415Z AUTO 00000KT 10SM CLR 13/07 A3037 RMK A01
KM91 171355Z AUTO VRB03KT 10SM CLR 11/07 A3037 RMK A01
KM91 171335Z AUTO 00000KT 8SM CLR 10/07 A3037 RMK A01
KM91 171315Z AUTO 00000KT 7SM CLR 08/07 A3036 RMK A01
KM91 171255Z AUTO 00000KT 8SM CLR 07/06 A3035 RMK A01
KM91 171235Z AUTO 00000KT 9SM CLR 06/05 A3035 RMK A01
KM91 171215Z AUTO 08003KT 2SM BR CLR 05/05 A3034 RMK A01 VIS 1 1/2V5
KM91 171155Z AUTO 00000KT 9SM CLR 05/05 A3033 RMK A01
KM91 171135Z AUTO 00000KT 9SM FEW032 05/05 A3033 RMK A01
KM91 171115Z AUTO 00000KT 6SM BR FEW032 FEW038 FEW085 05/05 A3033 RMK A01
KM91 171055Z AUTO 00000KT 5SM BR SCT032 SCT038 SCT085 04/04 A3032 RMK A01
KM91 171035Z AUTO 00000KT 2 1/2SM BR SCT033 SCT040 04/04 A3032 RMK A01
KM91 171015Z AUTO 00000KT 1 1/4SM BR FEW023 SCT029 BKN035 05/05 A3031 RMK A01
KM91 170955Z AUTO 00000KT 4SM BR FEW025 SCT033 05/05 A3031 RMK A01
KM91 170935Z AUTO 00000KT 7SM SCT033 05/05 A3030 RMK A01
KM91 170915Z AUTO 00000KT 6SM BR FEW031 05/05 A3030 RMK A01
KM91 170855Z AUTO 00000KT 5SM BR FEW034 FEW040 05/05 A3030 RMK A01
KM91 170835Z AUTO 00000KT 5SM BR FEW038 06/06 A3030 RMK A01
KM91 170815Z AUTO 00000KT 4SM BR FEW035 06/06 A3030 RMK A01
KM91 170755Z AUTO 00000KT 8SM FEW032 06/06 A3030 RMK A01
KM91 170735Z AUTO 00000KT 7SM FEW036 06/06 A3030 RMK A01
KM91 170715Z AUTO 00000KT 8SM CLR 06/06 A3030 RMK A01
KM91 170655Z AUTO 00000KT 8SM CLR 06/06 A3030 RMK A01
KM91 170635Z AUTO 00000KT 3SM BR CLR 06/06 A3030 RMK A01
KM91 170615Z AUTO 00000KT 10SM FEW033 06/06 A3030 RMK A01
KM91 170555Z AUTO 00000KT 10SM CLR 06/06 A3029 RMK A01
KM91 170535Z AUTO 00000KT 10SM CLR 06/06 A3029 RMK A01
KM91 170515Z AUTO 00000KT 7SM FEW034 07/06 A3030 RMK A01
KM91 170455Z AUTO 00000KT 8SM FEW024 SCT034 07/07 A3030 RMK A01
KM91 170435Z AUTO 00000KT 3SM BR FEW026 BKN035 07/07 A3030 RMK A01
KM91 170415Z AUTO 00000KT 9SM FEW021 FEW029 BKN037 07/07 A3030 RMK A01
KM91 170355Z AUTO 00000KT 9SM FEW022 FEW028 BKN037 08/07 A3031 RMK A01
KM91 170335Z AUTO 00000KT 10SM BKN038 08/06 A3031 RMK A01
KM91 170315Z AUTO 00000KT 10SM SCT040 08/07 A3030 RMK A01
KM91 170255Z AUTO 00000KT 6SM BR FEW035 FEW042 09/07 A3030 RMK A01
KM91 170235Z AUTO 00000KT 10SM CLR 09/06 A3030 RMK A01
KM91 170215Z AUTO 00000KT 9SM CLR 09/06 A3029 RMK A01
KM91 170155Z AUTO 00000KT 10SM CLR 10/06 A3029 RMK A01
KM91 170135Z AUTO 03003KT 10SM CLR 11/06 A3029 RMK A01
KM91 170115Z AUTO 03003KT 10SM CLR 11/06 A3028 RMK A01
KM91 170055Z AUTO 00000KT 10SM CLR 11/06 A3029 RMK A01
KM91 170035Z AUTO 00000KT 10SM CLR 11/06 A3028 RMK A01
KM91 170015Z AUTO 00000KT 10SM CLR 12/06 A3028 RMK A01
KM91 162355Z AUTO 00000KT 10SM CLR 13/06 A3028 RMK A01
KM91 162335Z AUTO 00000KT 10SM CLR 13/06 A3028 RMK A01
KM91 162315Z AUTO 36003KT 10SM CLR 14/05 A3027 RMK A01
KM91 162255Z AUTO 36006KT 10SM CLR 15/05 A3027 RMK A01
KM91 162235Z AUTO 01006KT 10SM CLR 16/05 A3026 RMK A01
KM91 162215Z AUTO 01009KT 10SM CLR 16/05 A3026 RMK A01
KM91 162155Z AUTO 03008KT 10SM CLR 17/04 A3026 RMK A01
KM91 162135Z AUTO 36008G13KT 10SM CLR 17/05 A3026 RMK A01
KM91 162115Z AUTO 03010KT 10SM CLR 17/04 A3026 RMK A01
KM91 162055Z AUTO 02009G14KT 10SM CLR 17/05 A3026 RMK A01
KM91 162035Z AUTO 35007KT 310V030 10SM CLR 17/05 A3026 RMK A01
KM91 162015Z AUTO 36007G14KT 10SM CLR 17/05 A3026 RMK A01
KM91 161955Z AUTO 01011KT 10SM FEW050 17/05 A3026 RMK A01
KM91 161935Z AUTO 02007KT CLR 17/05 A3027 RMK A01
KM91 161915Z AUTO 01008G14KT 10SM CLR 17/05 A3027 RMK A01
KM91 161855Z AUTO 02007G15KT 10SM CLR 16/05 A3028 RMK A01
KM91 161835Z AUTO 03009KT 10SM FEW047 16/05 A3029 RMK A01
KM91 161815Z AUTO 35008G15KT 330V040 10SM SCT044 16/06 A3030 RMK A01
KM91 161755Z AUTO 03008G17KT 10SM SCT042 16/06 A3031 RMK A01
KM91 161735Z AUTO 01013KT 10SM BKN041 16/06 A3032 RMK A01
KM91 161715Z AUTO 36008G15KT 10SM BKN039 15/06 A3033 RMK A01
KM91 161655Z AUTO 02011KT 10SM BKN036 15/07 A3033 RMK A01
KM91 161635Z AUTO 01010G16KT 10SM OVC035 15/07 A3033 RMK A01
KM91 161615Z AUTO 04006G16KT 10SM BKN033 14/07 A3033 RMK A01
KM91 161555Z AUTO 36009KT 10SM BKN029 BKN034 14/07 A3033 RMK A01
KM91 161535Z AUTO 03009G16KT 10SM SCT028 14/07 A3033 RMK A01
KM91 161515Z AUTO 02009KT 10SM FEW027 13/07 A3033 RMK A01
KM91 161455Z AUTO 03011KT 10SM CLR 13/07 A3033 RMK A01
KM91 161055Z AUTO 34005KT 10SM CLR 08/07 A3026 RMK A01